Maria G — 9HA4557 — position and weather

sailwx.info

Track history (hours):
 
Tides and Currents Weather Stations Pressure Air Temp Water Temp Dewpoint Dewpoint Depression Visibility Wind Speed Wind Dir Waves Ship Positions

Maria G

Last reported at 2017-Dec-10 10:05 UTC. Time now 2017-Dec-14 08:13 UTC.
Position N 45°31' W 073°31'.

Length 200 m; draft 8 m.

Type: Cargo ship. MMSI: 248203000.

Date/timePositionNaut miles runAvg speedWind from/ knotsBaromVisibWave heightAir tempDewpointWater temp
2017-Dec-10 10:05N 45°31' W 073°31'1 1.6
2017-Dec-10 09:11N 45°30' W 073°31'0 1.4
2017-Dec-10 08:59N 45°29' W 073°31'3 5.1
2017-Dec-10 08:27N 45°27' W 073°30'3 5.5
2017-Dec-10 07:52N 45°24' W 073°34'0 0.8
2017-Dec-10 07:30N 45°24' W 073°34'1 1.7
2017-Dec-10 07:00N 45°24' W 073°35'2 4.6
2017-Dec-10 06:30N 45°24' W 073°38'3 6.1
2017-Dec-10 06:00N 45°25' W 073°43'510.8
2017-Dec-10 05:30N 45°22' W 073°50'5 9.8
2017-Dec-10 05:00N 45°19' W 073°55'0 0.5
2017-Dec-10 04:30N 45°19' W 073°55'1 1.5
2017-Dec-10 04:00N 45°18' W 073°56'0 0.4
2017-Dec-10 03:30N 45°18' W 073°56'1 2.8
2017-Dec-10 03:00N 45°17' W 073°57'4 8.2
2017-Dec-10 02:30N 45°14' W 074°00'510.3
2017-Dec-10 02:00N 45°14' W 074°08'  
Track history (hours):
 
Tides and Currents Weather Stations Pressure Air Temp Water Temp Dewpoint Dewpoint Depression Visibility Wind Speed Wind Dir Waves Ship Positions

Maria G

Last reported at 2017-Dec-10 10:05 UTC. Time now 2017-Dec-14 08:13 UTC.
Position N 45°31' W 073°31'.

Length 200 m; draft 8 m.

Type: Cargo ship. MMSI: 248203000.

Date/timePositionNaut miles runAvg speedWind from/ knotsBaromVisibWave heightAir tempDewpointWater temp
2017-Dec-10 10:05N 45°31' W 073°31'1 1.6
2017-Dec-10 09:11N 45°30' W 073°31'0 1.4
2017-Dec-10 08:59N 45°29' W 073°31'3 5.1
2017-Dec-10 08:27N 45°27' W 073°30'3 5.5
2017-Dec-10 07:52N 45°24' W 073°34'0 0.8
2017-Dec-10 07:30N 45°24' W 073°34'1 1.7
2017-Dec-10 07:00N 45°24' W 073°35'2 4.6
2017-Dec-10 06:30N 45°24' W 073°38'3 6.1
2017-Dec-10 06:00N 45°25' W 073°43'510.8
2017-Dec-10 05:30N 45°22' W 073°50'5 9.8
2017-Dec-10 05:00N 45°19' W 073°55'0 0.5
2017-Dec-10 04:30N 45°19' W 073°55'1 1.5
2017-Dec-10 04:00N 45°18' W 073°56'0 0.4
2017-Dec-10 03:30N 45°18' W 073°56'1 2.8
2017-Dec-10 03:00N 45°17' W 073°57'4 8.2
2017-Dec-10 02:30N 45°14' W 074°00'510.3
2017-Dec-10 02:00N 45°14' W 074°08'  

Dump ship's entire track history